createdAt,value
2023-02-24T00:02:04.711Z,6.30
2023-02-24T00:04:35.710Z,6.28
2023-02-24T00:07:05.897Z,6.68
2023-02-24T00:09:34.945Z,6.00
2023-02-24T00:12:05.666Z,5.57
2023-02-24T00:14:36.107Z,6.05
2023-02-24T00:17:08.469Z,5.90
2023-02-24T00:19:38.521Z,5.57
2023-02-24T00:22:10.311Z,5.60
2023-02-24T00:24:38.913Z,7.13
2023-02-24T00:27:11.365Z,6.05
2023-02-24T00:29:40.581Z,6.32
2023-02-24T00:32:13.281Z,5.55
2023-02-24T00:34:44.172Z,5.78
2023-02-24T00:37:16.002Z,5.82
2023-02-24T00:39:44.484Z,5.38
2023-02-24T00:42:13.147Z,5.75
2023-02-24T00:44:43.503Z,5.65
2023-02-24T00:47:13.025Z,5.45
2023-02-24T00:49:43.342Z,5.70
2023-02-24T00:52:15.959Z,5.72
2023-02-24T00:54:46.169Z,5.13
2023-02-24T00:57:16.247Z,5.88
2023-02-24T00:59:48.069Z,5.85
2023-02-24T01:02:17.862Z,5.10
2023-02-24T01:04:46.648Z,6.05
2023-02-24T01:07:16.759Z,7.07
2023-02-24T01:09:45.726Z,6.40
2023-02-24T01:12:38.011Z,6.35
2023-02-24T01:15:09.557Z,6.32
2023-02-24T01:17:38.857Z,5.93
2023-02-24T01:20:17.363Z,6.63
2023-02-24T01:22:50.755Z,6.35
2023-02-24T01:25:21.007Z,6.00
2023-02-24T01:27:49.972Z,6.85
2023-02-24T01:30:18.767Z,5.45
2023-02-24T01:32:48.645Z,5.55
2023-02-24T01:35:18.222Z,5.45
2023-02-24T01:37:48.242Z,5.30
2023-02-24T01:40:21.904Z,5.68
2023-02-24T01:42:52.372Z,6.15
2023-02-24T01:45:29.061Z,6.72
2023-02-24T01:48:02.496Z,5.45
2023-02-24T01:50:33.207Z,5.20
2023-02-24T01:53:06.845Z,4.93
2023-02-24T01:55:39.682Z,5.55
2023-02-24T01:58:15.803Z,4.88
2023-02-24T02:00:47.980Z,5.30
2023-02-24T02:03:31.306Z,4.72
2023-02-24T02:06:03.271Z,4.43
2023-02-24T02:08:36.807Z,4.05
2023-02-24T02:11:08.658Z,4.75
2023-02-24T02:13:38.602Z,4.55
2023-02-24T02:16:27.027Z,4.72
2023-02-24T02:19:11.543Z,4.85
2023-02-24T02:22:07.786Z,4.95
2023-02-24T02:24:48.685Z,4.15
2023-02-24T02:27:38.891Z,4.40
2023-02-24T02:30:29.167Z,4.68
2023-02-24T02:33:39.781Z,4.20
2023-02-24T02:36:22.618Z,3.70
2023-02-24T02:38:58.708Z,4.38
2023-02-24T02:41:32.157Z,4.72
2023-02-24T02:44:09.061Z,4.88
2023-02-24T02:46:43.939Z,4.18
2023-02-24T02:49:22.164Z,4.38
2023-02-24T02:51:55.175Z,5.65
2023-02-24T02:54:30.111Z,4.95
2023-02-24T02:57:07.136Z,4.55
2023-02-24T02:59:41.784Z,4.10
2023-02-24T03:02:14.875Z,4.85
2023-02-24T03:04:46.815Z,3.58
2023-02-24T03:07:20.300Z,3.67
2023-02-24T03:09:53.232Z,4.40
2023-02-24T03:12:25.261Z,4.32
2023-02-24T03:15:00.497Z,4.00
2023-02-24T03:17:32.368Z,4.45
2023-02-24T03:20:15.525Z,4.25
2023-02-24T03:22:52.290Z,5.00
2023-02-24T03:25:25.832Z,3.78
2023-02-24T03:28:01.413Z,3.58
2023-02-24T03:30:38.248Z,4.47
2023-02-24T03:33:18.795Z,4.78
2023-02-24T03:35:50.083Z,4.60
2023-02-24T03:38:24.434Z,4.75
2023-02-24T03:40:53.835Z,4.20
2023-02-24T03:43:28.148Z,4.38
2023-02-24T03:45:58.040Z,5.32
2023-02-24T03:48:29.486Z,5.07
2023-02-24T03:50:59.760Z,3.88
2023-02-24T03:53:43.852Z,4.40
2023-02-24T03:56:29.012Z,4.68
2023-02-24T03:59:13.140Z,4.40
2023-02-24T04:01:50.220Z,5.05
2023-02-24T04:04:27.947Z,4.35
2023-02-24T04:07:01.051Z,5.35
2023-02-24T04:09:40.987Z,5.28
2023-02-24T04:12:21.157Z,5.25
2023-02-24T04:14:54.518Z,4.68
2023-02-24T04:17:28.088Z,5.30
2023-02-24T04:20:02.905Z,5.00
2023-02-24T04:22:33.213Z,4.90
2023-02-24T04:25:06.521Z,5.05
2023-02-24T04:27:35.818Z,5.18
2023-02-24T04:30:06.442Z,4.95
2023-02-24T04:32:35.097Z,4.80
2023-02-24T04:35:06.887Z,4.68
2023-02-24T04:37:37.680Z,4.53
2023-02-24T04:40:12.600Z,4.95
2023-02-24T04:42:46.722Z,4.88
2023-02-24T04:45:17.140Z,5.07
2023-02-24T04:47:49.686Z,5.10
2023-02-24T04:50:24.131Z,4.88
2023-02-24T04:52:54.465Z,4.40
2023-02-24T04:55:29.635Z,5.20
2023-02-24T04:57:59.296Z,4.70
2023-02-24T05:00:34.082Z,4.25
2023-02-24T05:03:04.591Z,4.65
2023-02-24T05:05:35.077Z,4.80
2023-02-24T05:08:06.700Z,4.38
2023-02-24T05:10:40.402Z,5.35
2023-02-24T05:13:11.277Z,4.07
2023-02-24T05:15:42.518Z,4.93
2023-02-24T05:18:17.384Z,4.50
2023-02-24T05:21:06.038Z,5.43
2023-02-24T05:23:36.411Z,4.65
2023-02-24T05:26:09.766Z,5.00
2023-02-24T05:28:41.049Z,4.32
2023-02-24T05:31:11.853Z,5.10
2023-02-24T05:33:43.053Z,5.20
2023-02-24T05:36:17.752Z,5.40
2023-02-24T05:38:47.809Z,4.90
2023-02-24T05:41:21.053Z,4.65
2023-02-24T05:43:55.664Z,4.95
2023-02-24T05:46:29.498Z,4.85
2023-02-24T05:48:59.522Z,4.60
2023-02-24T05:51:35.500Z,4.50
2023-02-24T05:54:06.862Z,4.97
2023-02-24T05:56:39.916Z,4.65
2023-02-24T05:59:11.024Z,4.60
2023-02-24T06:01:42.153Z,4.63
2023-02-24T06:04:21.141Z,4.55
2023-02-24T06:06:52.899Z,4.80
2023-02-24T06:09:24.547Z,4.32
2023-02-24T06:11:56.836Z,4.75
2023-02-24T06:14:26.469Z,4.50
2023-02-24T06:16:55.092Z,5.38
2023-02-24T06:19:25.821Z,5.93
2023-02-24T06:21:56.422Z,4.50
2023-02-24T06:24:27.405Z,4.82
2023-02-24T06:27:02.728Z,4.53
2023-02-24T06:29:32.345Z,4.47
2023-02-24T06:32:09.029Z,4.85
2023-02-24T06:34:38.345Z,5.85
2023-02-24T06:37:09.034Z,4.40
2023-02-24T06:39:37.867Z,4.97
2023-02-24T06:42:09.122Z,4.85
2023-02-24T06:44:40.803Z,4.45
2023-02-24T06:47:13.266Z,4.97
2023-02-24T06:49:43.003Z,4.55
2023-02-24T06:52:18.785Z,5.13
2023-02-24T06:54:52.953Z,5.53
2023-02-24T06:57:23.758Z,5.13
2023-02-24T06:59:52.532Z,4.80
2023-02-24T07:02:21.376Z,4.95
2023-02-24T07:04:50.686Z,5.20
2023-02-24T07:07:20.147Z,4.10
2023-02-24T07:09:49.056Z,4.45
2023-02-24T07:12:21.238Z,5.32
2023-02-24T07:14:53.540Z,5.10
2023-02-24T07:17:25.009Z,4.78
2023-02-24T07:19:54.758Z,4.35
2023-02-24T07:22:25.435Z,4.22
2023-02-24T07:25:00.829Z,4.55
2023-02-24T07:27:30.518Z,4.70
2023-02-24T07:30:00.652Z,4.10
2023-02-24T07:32:30.760Z,4.22
2023-02-24T07:34:59.878Z,4.53
2023-02-24T07:37:31.981Z,4.90
2023-02-24T07:40:00.489Z,4.05
2023-02-24T07:42:30.772Z,4.47
2023-02-24T07:45:08.423Z,4.50
2023-02-24T07:47:36.877Z,4.57
2023-02-24T07:50:10.996Z,4.18
2023-02-24T07:52:39.361Z,4.00
2023-02-24T07:55:10.445Z,4.65
2023-02-24T07:57:39.262Z,4.25
2023-02-24T08:00:19.445Z,4.45
2023-02-24T08:02:50.703Z,4.60
2023-02-24T08:05:19.456Z,4.30
2023-02-24T08:07:51.307Z,3.97
2023-02-24T08:10:28.437Z,4.57
2023-02-24T08:13:03.431Z,4.38
2023-02-24T08:15:35.284Z,3.15
2023-02-24T08:18:04.067Z,3.78
2023-02-24T08:20:52.561Z,4.63
2023-02-24T08:23:23.653Z,3.97
2023-02-24T08:25:53.865Z,4.28
2023-02-24T08:28:27.176Z,3.63
2023-02-24T08:30:57.553Z,4.25
2023-02-24T08:33:30.509Z,3.97
2023-02-24T08:36:02.408Z,5.13
2023-02-24T08:38:47.882Z,3.67
2023-02-24T08:41:21.673Z,3.72
2023-02-24T08:43:50.967Z,4.15
2023-02-24T08:46:27.174Z,4.15
2023-02-24T08:49:00.989Z,3.92
2023-02-24T08:51:35.114Z,4.00
2023-02-24T08:54:11.550Z,3.67
2023-02-24T08:56:44.138Z,4.00
2023-02-24T08:59:29.622Z,4.32
2023-02-24T09:15:21.095Z,3.78
2023-02-24T09:18:01.729Z,3.22
2023-02-24T09:20:47.414Z,3.95
2023-02-24T09:23:20.547Z,3.90
2023-02-24T09:25:51.342Z,3.50
2023-02-24T09:28:25.191Z,3.50
2023-02-24T09:30:57.567Z,3.58
2023-02-24T09:33:28.601Z,3.70
2023-02-24T09:36:13.297Z,3.50
2023-02-24T09:39:14.923Z,3.75
2023-02-24T09:41:57.838Z,4.38
2023-02-24T09:44:33.567Z,3.55
2023-02-24T09:47:13.853Z,3.95
2023-02-24T09:49:56.674Z,3.20
2023-02-24T09:52:40.010Z,3.50
2023-02-24T09:55:27.052Z,3.85
2023-02-24T09:58:20.961Z,3.40
2023-02-24T10:00:58.533Z,3.42
2023-02-24T10:03:48.364Z,3.33
2023-02-24T10:06:22.797Z,3.17
2023-02-24T10:08:57.686Z,2.95
2023-02-24T10:11:34.266Z,3.22
2023-02-24T10:14:06.820Z,3.00
2023-02-24T10:16:46.607Z,2.75
2023-02-24T10:19:25.768Z,2.80
2023-02-24T10:22:03.449Z,2.90
2023-02-24T10:24:38.956Z,2.80
2023-02-24T10:27:16.974Z,2.70
2023-02-24T10:30:06.051Z,2.72
2023-02-24T10:32:47.359Z,2.85
2023-02-24T10:35:21.183Z,2.60
2023-02-24T10:37:50.730Z,2.63
2023-02-24T10:40:34.167Z,2.88
2023-02-24T10:43:10.975Z,2.53
2023-02-24T10:45:45.698Z,3.00
2023-02-24T10:48:41.043Z,2.72
2023-02-24T10:51:20.535Z,2.67
2023-02-24T10:54:10.486Z,2.70
2023-02-24T10:56:45.128Z,2.90
2023-02-24T10:59:41.617Z,2.85
2023-02-24T11:02:30.200Z,2.80
2023-02-24T11:05:14.121Z,3.05
2023-02-24T11:07:54.248Z,2.75
2023-02-24T11:10:33.037Z,3.20
2023-02-24T11:13:20.605Z,2.95
2023-02-24T11:16:09.963Z,2.60
2023-02-24T11:18:40.918Z,2.38
2023-02-24T11:21:13.059Z,2.60
2023-02-24T11:23:48.746Z,2.50
2023-02-24T11:26:23.224Z,2.25
2023-02-24T11:29:01.378Z,2.63
2023-02-24T11:31:46.443Z,2.65
2023-02-24T11:34:25.199Z,3.22
2023-02-24T11:37:07.435Z,2.75
2023-02-24T11:39:57.016Z,3.03
2023-02-24T11:42:31.991Z,2.60
2023-02-24T11:45:09.491Z,3.00
2023-02-24T11:47:48.230Z,3.30
2023-02-24T11:50:32.665Z,3.00
2023-02-24T11:53:07.626Z,1.95
2023-02-24T11:55:42.745Z,1.83
2023-02-24T11:58:19.516Z,2.20
2023-02-24T12:00:57.239Z,2.42
2023-02-24T12:03:35.741Z,2.08
2023-02-24T12:06:17.278Z,2.47
2023-02-24T12:08:50.929Z,2.40
2023-02-24T12:11:30.681Z,2.97
2023-02-24T12:14:08.817Z,2.60
2023-02-24T12:16:41.942Z,2.42
2023-02-24T12:19:21.012Z,2.10
2023-02-24T12:21:55.111Z,2.13
2023-02-24T12:24:24.600Z,2.28
2023-02-24T12:27:06.745Z,2.20
2023-02-24T12:29:52.666Z,2.25
2023-02-24T12:32:39.052Z,2.35
2023-02-24T12:35:20.687Z,2.13
2023-02-24T12:38:11.497Z,2.00
2023-02-24T12:40:47.970Z,1.73
2023-02-24T12:43:29.533Z,1.90
2023-02-24T12:46:07.385Z,2.05
2023-02-24T12:49:18.156Z,2.25
2023-02-24T12:51:58.869Z,1.70
2023-02-24T12:54:33.175Z,1.92
2023-02-24T12:57:10.641Z,1.90
2023-02-24T12:59:43.344Z,2.10
2023-02-24T13:02:24.776Z,2.05
2023-02-24T13:05:05.293Z,1.83
2023-02-24T13:07:53.480Z,2.25
2023-02-24T13:10:34.959Z,2.05
2023-02-24T13:13:12.241Z,2.00
2023-02-24T13:15:52.020Z,1.98
2023-02-24T13:18:30.255Z,2.20
2023-02-24T13:21:09.219Z,2.35
2023-02-24T13:23:42.221Z,1.75
2023-02-24T13:26:13.062Z,2.05
2023-02-24T13:28:41.621Z,2.20
2023-02-24T13:31:14.103Z,2.22
2023-02-24T13:33:44.446Z,2.63
2023-02-24T13:36:17.673Z,2.35
2023-02-24T13:38:48.971Z,2.97
2023-02-24T13:41:45.208Z,2.42
2023-02-24T13:44:27.209Z,3.00
2023-02-24T13:47:36.580Z,3.10
2023-02-24T13:50:21.093Z,2.33
2023-02-24T13:53:10.015Z,2.10
2023-02-24T13:56:01.640Z,2.33
2023-02-24T13:59:06.514Z,2.20
2023-02-24T14:01:48.585Z,2.92
2023-02-24T14:04:22.467Z,2.33
2023-02-24T14:06:54.931Z,2.30
2023-02-24T14:09:28.446Z,2.10
2023-02-24T14:12:01.875Z,3.05
2023-02-24T14:14:32.187Z,2.03
2023-02-24T14:17:00.688Z,1.83
2023-02-24T14:19:30.675Z,2.20
2023-02-24T14:22:01.072Z,2.38
2023-02-24T14:24:29.977Z,1.90
2023-02-24T14:27:01.248Z,1.83
2023-02-24T14:29:32.393Z,1.90
2023-02-24T14:32:02.330Z,2.20
2023-02-24T14:34:35.040Z,1.50
2023-02-24T14:37:05.901Z,2.35
2023-02-24T14:39:35.859Z,2.35
2023-02-24T14:42:15.104Z,2.50
2023-02-24T14:44:46.559Z,2.47
2023-02-24T14:47:16.594Z,2.08
2023-02-24T14:49:58.668Z,2.30
2023-02-24T14:52:37.668Z,2.05
2023-02-24T14:55:16.049Z,1.88
2023-02-24T14:57:51.427Z,2.17
2023-02-24T15:00:24.562Z,2.00
2023-02-24T15:03:06.361Z,2.17
2023-02-24T15:05:44.785Z,2.28
2023-02-24T15:08:31.390Z,2.28
2023-02-24T15:11:00.464Z,1.75
2023-02-24T15:13:37.860Z,2.08
2023-02-24T15:16:14.986Z,1.92
2023-02-24T15:18:43.805Z,2.25
2023-02-24T15:21:23.484Z,1.77
2023-02-24T15:24:01.501Z,2.08
2023-02-24T15:26:32.923Z,1.83
2023-02-24T15:29:04.099Z,2.00
2023-02-24T15:31:32.967Z,1.98
2023-02-24T15:34:04.362Z,1.88
2023-02-24T15:36:37.476Z,1.85
2023-02-24T15:39:10.537Z,2.47
2023-02-24T15:41:45.962Z,2.65
2023-02-24T15:44:28.688Z,1.80
2023-02-24T15:46:58.137Z,1.55
2023-02-24T15:49:26.892Z,1.98
2023-02-24T15:52:01.695Z,1.77
2023-02-24T15:54:33.194Z,2.65
2023-02-24T15:57:03.409Z,3.33
2023-02-24T15:59:32.099Z,2.20
2023-02-24T16:02:00.708Z,2.70
2023-02-24T16:04:29.395Z,3.40
2023-02-24T16:07:02.046Z,1.92
2023-02-24T16:09:36.774Z,2.00
2023-02-24T16:12:21.763Z,1.88
2023-02-24T16:14:56.238Z,2.40
2023-02-24T16:17:33.098Z,2.33
2023-02-24T16:20:02.859Z,1.85
2023-02-24T16:22:32.968Z,2.10
2023-02-24T16:25:01.515Z,2.30
2023-02-24T16:27:31.931Z,2.50
2023-02-24T16:30:01.866Z,3.88
2023-02-24T16:32:30.934Z,2.53
2023-02-24T16:35:00.463Z,2.22
2023-02-24T16:37:30.926Z,2.47
2023-02-24T16:40:01.789Z,1.77
2023-02-24T16:42:30.394Z,2.25
2023-02-24T16:44:59.014Z,29.45
2023-02-24T16:47:27.636Z,2.75
2023-02-24T16:49:58.088Z,2.95
2023-02-24T16:52:26.629Z,4.03
2023-02-24T16:54:55.228Z,2.40
2023-02-24T16:57:26.144Z,4.22
2023-02-24T16:59:55.762Z,3.53
2023-02-24T17:02:27.090Z,2.90
2023-02-24T17:04:55.561Z,5.00
2023-02-24T17:07:24.396Z,3.47
2023-02-24T17:09:53.737Z,3.30
2023-02-24T17:12:24.840Z,3.60
2023-02-24T17:14:53.512Z,3.13
2023-02-24T17:17:22.106Z,3.28
2023-02-24T17:19:52.298Z,3.70
2023-02-24T17:22:22.339Z,3.10
2023-02-24T17:24:50.976Z,2.45
2023-02-24T17:27:19.649Z,2.97
2023-02-24T17:29:49.705Z,2.72
2023-02-24T17:32:18.548Z,3.03
2023-02-24T17:34:47.461Z,2.80
2023-02-24T17:37:16.026Z,2.60
2023-02-24T17:39:44.538Z,3.03
2023-02-24T17:42:13.148Z,3.70
2023-02-24T17:44:41.768Z,3.63
2023-02-24T17:47:12.927Z,3.78
2023-02-24T17:49:41.600Z,3.80
2023-02-24T17:52:10.310Z,3.65
2023-02-24T17:54:39.275Z,3.83
2023-02-24T17:57:09.494Z,3.88
2023-02-24T17:59:38.375Z,4.35
2023-02-24T18:02:10.509Z,4.35
2023-02-24T18:04:41.854Z,3.97
2023-02-24T18:07:12.160Z,4.78
2023-02-24T18:09:41.081Z,5.35
2023-02-24T18:12:09.936Z,5.07
2023-02-24T18:14:38.417Z,4.80
2023-02-24T18:17:06.959Z,5.18
2023-02-24T18:19:35.404Z,5.35
2023-02-24T18:22:05.389Z,4.97
2023-02-24T18:24:34.917Z,5.93
2023-02-24T18:27:04.493Z,5.18
2023-02-24T18:29:33.642Z,5.65
2023-02-24T18:32:03.737Z,5.50
2023-02-24T18:34:32.416Z,7.15
2023-02-24T18:37:01.199Z,8.63
2023-02-24T18:39:31.414Z,6.10
2023-02-24T18:42:00.298Z,5.85
2023-02-24T18:44:29.630Z,6.25
2023-02-24T18:46:58.532Z,6.00
2023-02-24T18:49:27.359Z,6.30
2023-02-24T18:52:23.032Z,5.63
2023-02-24T18:54:53.567Z,5.43
2023-02-24T18:57:22.186Z,5.85
2023-02-24T18:59:51.431Z,7.70
2023-02-24T19:02:20.194Z,5.93
2023-02-24T19:04:48.899Z,9.38
2023-02-24T19:07:17.559Z,7.60
2023-02-24T19:09:48.964Z,6.95
2023-02-24T19:12:20.878Z,9.07
2023-02-24T19:14:53.071Z,8.77
2023-02-24T19:17:22.178Z,7.70
2023-02-24T19:19:50.950Z,9.00
2023-02-24T19:22:19.805Z,10.85
2023-02-24T19:24:48.391Z,7.82
2023-02-24T19:27:17.155Z,7.53
2023-02-24T19:29:47.212Z,10.27
2023-02-24T19:32:16.093Z,9.45
2023-02-24T19:34:44.550Z,8.63
2023-02-24T19:37:13.581Z,8.60
2023-02-24T19:39:42.393Z,10.50
2023-02-24T19:42:11.216Z,6.85
2023-02-24T19:44:39.712Z,8.73
2023-02-24T19:47:09.769Z,8.60
2023-02-24T19:49:39.093Z,8.95
2023-02-24T19:52:07.748Z,7.05
2023-02-24T19:54:36.878Z,8.52
2023-02-24T19:57:05.591Z,7.63
2023-02-24T19:59:34.406Z,8.57
2023-02-24T20:02:03.037Z,9.73
2023-02-24T20:04:33.304Z,13.68
2023-02-24T20:07:01.972Z,14.38
2023-02-24T20:09:30.396Z,12.48
2023-02-24T20:12:01.240Z,11.77
2023-02-24T20:14:31.268Z,14.13
2023-02-24T20:16:59.963Z,12.13
2023-02-24T20:19:28.708Z,11.50
2023-02-24T20:21:58.763Z,13.18
2023-02-24T20:24:27.679Z,11.93
2023-02-24T20:26:56.603Z,11.75
2023-02-24T20:29:25.288Z,9.75
2023-02-24T20:31:53.956Z,9.73
2023-02-24T20:34:22.767Z,9.88
2023-02-24T20:36:51.381Z,9.00
2023-02-24T20:39:25.309Z,11.15
2023-02-24T20:41:55.314Z,11.25
2023-02-24T20:44:23.896Z,10.80
2023-02-24T20:46:52.468Z,9.68
2023-02-24T20:49:21.582Z,9.75
2023-02-24T20:51:50.342Z,9.27
2023-02-24T20:54:20.532Z,10.20
2023-02-24T20:56:49.452Z,12.25
2023-02-24T20:59:22.229Z,9.68
2023-02-24T21:01:52.364Z,8.88
2023-02-24T21:04:22.804Z,8.43
2023-02-24T21:06:52.289Z,8.40
2023-02-24T21:09:22.975Z,8.15
2023-02-24T21:11:51.657Z,8.52
2023-02-24T21:14:22.349Z,8.45
2023-02-24T21:16:51.451Z,9.20
2023-02-24T21:19:20.472Z,9.00
2023-02-24T21:21:49.528Z,9.15
2023-02-24T21:24:18.296Z,9.82
2023-02-24T21:26:48.817Z,8.32
2023-02-24T21:29:17.814Z,7.60
2023-02-24T21:31:47.381Z,8.60
2023-02-24T21:34:17.030Z,9.65
2023-02-24T21:36:46.338Z,8.93
2023-02-24T21:39:15.663Z,8.43
2023-02-24T21:41:44.405Z,7.55
2023-02-24T21:44:16.504Z,7.90
2023-02-24T21:46:45.787Z,8.55
2023-02-24T21:49:15.151Z,8.48
2023-02-24T21:51:43.932Z,8.52
2023-02-24T21:54:12.916Z,8.70
2023-02-24T21:56:42.429Z,8.90
2023-02-24T21:59:11.759Z,8.23
2023-02-24T22:01:43.860Z,7.75
2023-02-24T22:04:19.375Z,7.97
2023-02-24T22:06:47.898Z,7.38
2023-02-24T22:09:20.129Z,8.10
2023-02-24T22:11:50.852Z,7.78
2023-02-24T22:14:21.468Z,7.70
2023-02-24T22:16:51.633Z,9.13
2023-02-24T22:19:20.782Z,8.35
2023-02-24T22:21:49.443Z,8.07
2023-02-24T22:24:19.673Z,7.45
2023-02-24T22:26:47.990Z,7.47
2023-02-24T22:29:16.486Z,8.70
2023-02-24T22:31:49.067Z,7.97
2023-02-24T22:34:19.609Z,8.85
2023-02-24T22:36:48.200Z,7.57
2023-02-24T22:39:17.843Z,8.27
2023-02-24T22:41:48.524Z,8.57
2023-02-24T22:44:19.577Z,6.93
2023-02-24T22:46:49.489Z,7.70
2023-02-24T22:49:19.586Z,7.88
2023-02-24T22:51:47.921Z,8.63
2023-02-24T22:54:17.046Z,7.75
2023-02-24T22:56:45.778Z,8.43
2023-02-24T22:59:14.836Z,8.40
2023-02-24T23:01:44.431Z,8.45
2023-02-24T23:04:15.751Z,8.23
2023-02-24T23:06:47.886Z,8.48
2023-02-24T23:09:20.235Z,8.80
2023-02-24T23:11:49.249Z,8.85
2023-02-24T23:14:18.510Z,7.80
2023-02-24T23:16:48.689Z,8.63
2023-02-24T23:19:18.951Z,8.85
2023-02-24T23:21:51.737Z,8.63
2023-02-24T23:24:21.876Z,7.82
2023-02-24T23:26:54.162Z,8.48
2023-02-24T23:29:24.477Z,8.30
2023-02-24T23:31:54.380Z,7.45
2023-02-24T23:34:23.224Z,7.75
2023-02-24T23:36:53.314Z,8.32
2023-02-24T23:39:24.140Z,7.65
2023-02-24T23:41:57.488Z,8.93
2023-02-24T23:44:26.857Z,8.85
2023-02-24T23:46:58.458Z,9.50
2023-02-24T23:49:39.147Z,9.77
2023-02-24T23:52:16.086Z,9.88
2023-02-24T23:54:44.802Z,9.95
2023-02-24T23:57:13.551Z,9.30
2023-02-24T23:59:42.644Z,9.57
